Hauptseite
METAR-TAF:

METAR-TAF

Flughäfen :

Flughafen Guernsey

Guernsey,

Breite: 49-26N, Länge: 002-36W, Höhe: 102 m

Beobachtung

Neuester Wetterbericht von vor 25 Minuten, um 08:20 UTC
Wind 4 kt aus Nord/Nordost, variierte zwischen Nord und Ost/Nordost
Temperatur 15°C
Luftfeuchtigkeit 72%
Luftdruck 1023 hPa
Sichtweite: 9000 m

METAR: EGJB 090820Z 03004KT 010V070 9000 NSC 15/10 Q1023

Zeit: 09:45 (08:45 UTC)

Prognose

Neuester Wetterbericht von vor 46 Minuten, um 07:59 UTC
Gültige Prognose vom 09 um 09 UTC bis 09 um 18 UTC
Wind 5 kt aus Nordost
Sichtweite 10 km oder mehr
keine Wolken unter 1500 m und keine Kumulonimbus oder Gewitterwolken

TAF: EGJB 090759Z 0909/0918 05005KT CAVOK

Wetterbeobachtungen und Prognosen von mehr als 4000 Flughäfen (METAR und TAF Bericht).

Die verfügbaren Stationen werden durch gelbe und rote Markierungen auf der Karte dargestellt.

Führen Sie die Maus auf sie, um den Namen der Station zu sehen.

Darauf klicken, um die Beobachtung von Wetterbeobachtungen und Prognosen zu sehen.

Um die Karte zu ändern : klicken Sie auf den grünen Tasten mit einem schwarzen Kreuz Zum Vergrößern, auf den grünen Button mit einem Gedankenstrich zu verkleinern, oder auf die grünen Pfeile für benachbarte Karten.


METAR-TAF: